Time;durP1;ratioP1;P1;durP2;ratioP2;P2;SDS_P1;SDS_P2;PMS_P1;PMS_P2;Temp;Humidity;BMP_temperature;BMP_pressure;BME280_temperature;BME280_humidity;BME280_pressure;Samples;Min_cycle;Max_cycle;Signal;HPM_P1;HPM_P2
2021/05/28 00:02:15;;;;;;;3.10;2.20;;;14.70;47.30;;;;;;6216041;23;20161;-87
2021/05/28 00:04:48;;;;;;;2.20;2.10;;;14.70;48.10;;;;;;6216281;23;20147;-87
2021/05/28 00:07:13;;;;;;;2.40;2.20;;;14.70;48.60;;;;;;6215887;23;20138;-88
2021/05/28 00:09:41;;;;;;;2.53;2.37;;;14.60;48.40;;;;;;6215861;23;20440;-88
2021/05/28 00:12:07;;;;;;;2.17;1.80;;;14.80;48.50;;;;;;6215902;23;20139;-88
2021/05/28 00:14:36;;;;;;;2.77;2.10;;;14.80;48.10;;;;;;6217323;23;20405;-88
2021/05/28 00:17:02;;;;;;;4.23;2.77;;;14.90;47.70;;;;;;6215996;23;20511;-88
2021/05/28 00:19:27;;;;;;;2.13;1.93;;;14.60;47.10;;;;;;6215629;23;20406;-88
2021/05/28 00:21:53;;;;;;;2.67;2.47;;;15.10;47.10;;;;;;6216028;23;20509;-88
2021/05/28 00:24:20;;;;;;;2.90;2.60;;;15.00;46.40;;;;;;6215958;23;20139;-88
2021/05/28 00:26:46;;;;;;;2.13;2.03;;;15.20;46.20;;;;;;6215914;23;20160;-88
2021/05/28 00:29:12;;;;;;;2.20;2.10;;;15.10;46.40;;;;;;6215654;23;20795;-87
2021/05/28 00:31:38;;;;;;;3.17;2.67;;;14.80;47.20;;;;;;6215137;23;20362;-88
2021/05/28 00:34:03;;;;;;;2.97;2.77;;;14.50;47.80;;;;;;6215481;23;20503;-88
2021/05/28 00:36:29;;;;;;;4.23;2.20;;;14.30;48.00;;;;;;6215673;23;20575;-88
2021/05/28 00:38:55;;;;;;;2.50;2.30;;;14.40;49.00;;;;;;6215371;23;20147;-87
2021/05/28 00:41:20;;;;;;;2.90;2.60;;;14.80;48.90;;;;;;6215595;23;20174;-87
2021/05/28 00:43:46;;;;;;;4.40;2.33;;;14.50;48.50;;;;;;6215444;23;20189;-88
2021/05/28 00:46:12;;;;;;;2.33;2.13;;;14.50;48.80;;;;;;6215474;23;20190;-87
2021/05/28 00:48:38;;;;;;;3.93;3.07;;;14.60;48.50;;;;;;6215496;23;20373;-88
2021/05/28 00:51:05;;;;;;;2.93;2.63;;;14.80;48.10;;;;;;6215636;23;20146;-89
2021/05/28 00:53:31;;;;;;;2.37;2.17;;;14.70;48.70;;;;;;6216496;23;20600;-89
2021/05/28 00:56:00;;;;;;;2.63;2.43;;;14.30;49.30;;;;;;6215995;23;20385;-89
2021/05/28 00:58:26;;;;;;;3.17;2.23;;;14.10;50.30;;;;;;6216134;23;20419;-89
2021/05/28 01:00:52;;;;;;;2.10;1.60;;;14.20;50.10;;;;;;6216457;23;20735;-89
2021/05/28 01:03:18;;;;;;;2.13;1.67;;;14.20;49.70;;;;;;6216146;23;20380;-89
2021/05/28 01:05:44;;;;;;;1.73;1.63;;;14.10;50.30;;;;;;6215857;23;20377;-88
2021/05/28 01:08:10;;;;;;;2.60;2.23;;;14.00;50.30;;;;;;6216260;23;20401;-90
2021/05/28 01:10:37;;;;;;;2.20;1.80;;;14.10;50.10;;;;;;6216106;23;20381;-89
2021/05/28 01:13:07;;;;;;;3.63;1.87;;;14.20;49.70;;;;;;6215685;23;20754;-89
2021/05/28 01:15:33;;;;;;;2.60;2.00;;;14.10;49.40;;;;;;6216122;23;20409;-89
2021/05/28 01:17:59;;;;;;;3.00;2.00;;;14.30;49.30;;;;;;6215757;23;20384;-89
2021/05/28 01:20:25;;;;;;;2.63;2.10;;;14.30;49.00;;;;;;6215646;23;20424;-89
2021/05/28 01:22:52;;;;;;;2.50;2.30;;;14.50;49.40;;;;;;6215870;23;20378;-89
2021/05/28 01:25:20;;;;;;;1.67;1.57;;;14.30;49.00;;;;;;6216414;23;20381;-89
2021/05/28 01:27:46;;;;;;;2.20;2.00;;;14.30;48.90;;;;;;6216460;23;20415;-88
2021/05/28 01:30:15;;;;;;;2.63;1.90;;;14.20;48.70;;;;;;6216149;23;20381;-89
2021/05/28 01:32:44;;;;;;;3.27;3.00;;;14.40;48.60;;;;;;6216327;23;20967;-89
2021/05/28 01:35:12;;;;;;;2.70;2.43;;;14.30;48.50;;;;;;6216360;23;20405;-89
2021/05/28 01:37:38;;;;;;;3.17;2.97;;;14.10;48.90;;;;;;6216111;23;20417;-88
2021/05/28 01:40:12;;;;;;;2.40;2.20;;;14.00;48.90;;;;;;6215545;23;20472;-89
2021/05/28 01:42:38;;;;;;;2.90;2.70;;;14.10;49.40;;;;;;6217131;23;20369;-88
2021/05/28 01:45:10;;;;;;;2.77;2.57;;;14.10;49.30;;;;;;6216267;23;20377;-89
2021/05/28 01:47:36;;;;;;;2.73;2.57;;;14.10;49.40;;;;;;6216906;23;20424;-89
2021/05/28 01:50:03;;;;;;;3.00;2.63;;;14.20;49.30;;;;;;6190641;23;20369;-89
2021/05/28 01:52:29;;;;;;;2.90;2.70;;;14.00;49.20;;;;;;6190896;23;20150;-89
2021/05/28 01:54:55;;;;;;;2.50;2.30;;;14.40;49.80;;;;;;6191252;23;20703;-89
2021/05/28 01:57:22;;;;;;;2.57;2.37;;;14.20;49.80;;;;;;6190937;23;20155;-89
2021/05/28 01:59:47;;;;;;;2.77;2.13;;;14.10;49.60;;;;;;6190516;23;20397;-89
2021/05/28 02:02:14;;;;;;;2.60;2.50;;;14.20;49.50;;;;;;6190286;23;20792;-89
2021/05/28 02:04:41;;;;;;;2.67;2.47;;;14.20;49.70;;;;;;6190438;23;20460;-89
2021/05/28 02:07:06;;;;;;;4.30;2.17;;;14.20;49.70;;;;;;6190251;23;20395;-89
2021/05/28 02:09:33;;;;;;;3.30;2.53;;;14.40;49.30;;;;;;6190436;23;20681;-89
2021/05/28 02:11:59;;;;;;;3.30;3.00;;;14.40;48.90;;;;;;6190459;23;20525;-88
2021/05/28 02:14:26;;;;;;;4.30;2.63;;;14.60;48.70;;;;;;6190018;23;20381;-89
2021/05/28 02:16:52;;;;;;;2.73;2.53;;;14.70;48.50;;;;;;6191001;23;20800;-89
2021/05/28 02:19:20;;;;;;;2.70;2.40;;;15.00;49.30;;;;;;6190852;23;20378;-89
2021/05/28 02:21:46;;;;;;;2.30;2.10;;;14.80;48.20;;;;;;6190557;23;20424;-89
2021/05/28 02:24:14;;;;;;;2.90;2.70;;;14.80;48.00;;;;;;6190581;23;20396;-90
2021/05/28 02:26:40;;;;;;;3.10;2.90;;;14.80;47.70;;;;;;6190244;23;20396;-90
2021/05/28 02:29:07;;;;;;;3.03;2.80;;;14.90;47.80;;;;;;6190733;23;20373;-88
2021/05/28 02:31:32;;;;;;;2.60;2.40;;;15.00;47.50;;;;;;6190543;23;20380;-90
2021/05/28 02:33:58;;;;;;;2.13;1.90;;;14.90;47.20;;;;;;6190668;23;20373;-89
2021/05/28 02:36:24;;;;;;;3.30;3.10;;;15.00;46.90;;;;;;6190266;23;20142;-89
2021/05/28 02:38:51;;;;;;;3.47;3.13;;;14.90;47.00;;;;;;6190679;23;20535;-89
2021/05/28 02:41:16;;;;;;;3.90;3.40;;;14.60;47.30;;;;;;6190528;23;20170;-90
2021/05/28 02:43:42;;;;;;;3.30;3.10;;;14.80;48.40;;;;;;6190581;23;20381;-89
2021/05/28 02:46:08;;;;;;;3.40;3.10;;;14.80;48.20;;;;;;6181181;23;20190;-89
2021/05/28 02:48:33;;;;;;;3.77;3.47;;;14.70;48.50;;;;;;6160606;23;20143;-89
2021/05/28 02:50:59;;;;;;;3.50;2.77;;;14.60;48.60;;;;;;6160762;23;20460;-89
2021/05/28 02:53:27;;;;;;;3.90;3.30;;;14.60;49.10;;;;;;6160716;23;20529;-89
2021/05/28 02:55:52;;;;;;;3.30;3.00;;;14.50;48.90;;;;;;6160059;23;20155;-89
2021/05/28 02:58:18;;;;;;;3.70;3.07;;;14.60;48.60;;;;;;6186733;23;20917;-90
2021/05/28 03:00:44;;;;;;;3.03;2.73;;;14.60;48.20;;;;;;6160564;23;20197;-89
2021/05/28 03:03:09;;;;;;;3.03;2.83;;;14.60;48.20;;;;;;6160687;23;20143;-89
2021/05/28 03:05:44;;;;;;;3.37;3.13;;;14.50;48.20;;;;;;6161547;23;20140;-90
2021/05/28 03:08:09;;;;;;;3.60;3.30;;;14.70;48.70;;;;;;6163081;23;20138;-89
2021/05/28 03:10:36;;;;;;;3.50;3.20;;;14.40;49.30;;;;;;6162805;23;20385;-89
2021/05/28 03:13:02;;;;;;;3.80;2.40;;;14.30;49.90;;;;;;6162549;23;20143;-90
2021/05/28 03:15:41;;;;;;;2.80;2.60;;;14.30;49.30;;;;;;6163761;23;20373;-91
2021/05/28 03:18:16;;;;;;;4.40;2.83;;;14.70;49.20;;;;;;6189951;23;20162;-89
2021/05/28 03:20:48;;;;;;;3.10;2.90;;;14.50;48.70;;;;;;6163467;23;20504;-88
2021/05/28 03:23:15;;;;;;;3.70;3.17;;;14.40;49.30;;;;;;6162710;23;20378;-90
2021/05/28 03:25:41;;;;;;;3.90;3.33;;;14.40;49.80;;;;;;6161931;23;20822;-88
2021/05/28 03:28:07;;;;;;;3.17;2.97;;;14.40;49.50;;;;;;6161506;23;20374;-88
2021/05/28 03:30:39;;;;;;;4.00;2.40;;;14.50;49.20;;;;;;6161489;23;20514;-88
2021/05/28 03:33:05;;;;;;;2.50;2.30;;;14.50;48.70;;;;;;6187681;23;20136;-88
2021/05/28 03:35:31;;;;;;;3.03;2.83;;;14.30;48.40;;;;;;6161284;23;20378;-87
2021/05/28 03:37:57;;;;;;;2.63;2.43;;;14.50;48.50;;;;;;6160924;23;20754;-88
2021/05/28 03:40:23;;;;;;;2.97;2.70;;;14.50;48.90;;;;;;6161366;23;20506;-88
2021/05/28 03:42:49;;;;;;;3.60;3.30;;;14.30;49.50;;;;;;6161714;23;20218;-88
2021/05/28 03:45:14;;;;;;;3.80;3.50;;;14.30;49.30;;;;;;6161119;23;20370;-88
2021/05/28 03:47:40;;;;;;;3.33;3.07;;;14.30;49.20;;;;;;6211951;23;20194;-88
2021/05/28 03:50:07;;;;;;;3.00;2.70;;;14.40;49.30;;;;;;6216187;23;20233;-88
2021/05/28 03:52:33;;;;;;;3.23;2.93;;;14.30;49.00;;;;;;6217005;23;20180;-88
2021/05/28 03:54:59;;;;;;;2.90;2.60;;;14.40;48.70;;;;;;6216296;23;20439;-88
2021/05/28 03:57:25;;;;;;;4.00;2.87;;;14.40;48.60;;;;;;6215512;23;20653;-87
2021/05/28 03:59:51;;;;;;;3.80;3.50;;;14.30;49.10;;;;;;6214994;23;20408;-88
2021/05/28 04:02:16;;;;;;;3.17;2.87;;;14.30;48.80;;;;;;6215313;23;20513;-88
2021/05/28 04:04:42;;;;;;;3.40;3.10;;;14.40;48.90;;;;;;6215907;23;20431;-88
2021/05/28 04:07:08;;;;;;;3.40;3.10;;;14.30;48.70;;;;;;6215228;23;20225;-88
2021/05/28 04:09:35;;;;;;;3.53;3.27;;;14.30;48.70;;;;;;6216370;23;20377;-88
2021/05/28 04:12:01;;;;;;;3.47;3.23;;;13.90;48.90;;;;;;6215783;23;20385;-87
2021/05/28 04:14:26;;;;;;;3.00;2.80;;;14.00;49.70;;;;;;6215112;23;20406;-88
2021/05/28 04:16:52;;;;;;;3.67;3.37;;;14.00;50.20;;;;;;6215007;23;20513;-87
2021/05/28 04:19:17;;;;;;;4.23;3.93;;;13.90;49.60;;;;;;6215501;23;20636;-88
2021/05/28 04:21:43;;;;;;;4.23;3.43;;;13.90;50.10;;;;;;6215397;23;20676;-87
2021/05/28 04:24:09;;;;;;;3.63;3.33;;;13.80;50.40;;;;;;6215388;23;20142;-87
2021/05/28 04:26:35;;;;;;;3.27;2.97;;;13.50;50.20;;;;;;6215326;23;20142;-86
2021/05/28 04:29:01;;;;;;;3.73;3.43;;;13.50;50.60;;;;;;6215079;23;20376;-88
2021/05/28 04:31:26;;;;;;;4.33;4.00;;;13.10;50.90;;;;;;6215343;23;20147;-87
2021/05/28 04:33:52;;;;;;;3.77;3.47;;;13.10;51.30;;;;;;6215138;23;20369;-87
2021/05/28 04:36:18;;;;;;;3.73;3.43;;;13.10;51.00;;;;;;6215672;23;20205;-87
2021/05/28 04:38:44;;;;;;;6.67;4.33;;;13.00;51.40;;;;;;6215921;23;20381;-88
2021/05/28 04:41:09;;;;;;;4.13;3.73;;;13.10;51.50;;;;;;6216415;23;20309;-88
2021/05/28 04:43:35;;;;;;;4.87;3.50;;;13.00;51.90;;;;;;6215412;23;20178;-87
2021/05/28 04:46:02;;;;;;;4.97;4.27;;;13.00;52.20;;;;;;6215211;23;20190;-87
2021/05/28 04:48:28;;;;;;;4.10;3.80;;;13.00;52.10;;;;;;6215056;23;20737;-87
2021/05/28 04:50:54;;;;;;;4.47;4.07;;;13.00;52.50;;;;;;6214668;23;20435;-88
2021/05/28 04:53:20;;;;;;;4.60;4.17;;;12.90;52.70;;;;;;6215134;23;20637;-87
2021/05/28 04:55:47;;;;;;;3.90;3.60;;;12.90;52.50;;;;;;6214715;23;20389;-88
2021/05/28 04:58:12;;;;;;;4.20;3.90;;;12.90;53.40;;;;;;6215048;23;20415;-87
2021/05/28 05:00:39;;;;;;;4.23;3.83;;;12.90;52.60;;;;;;6214973;23;20512;-87
2021/05/28 05:03:05;;;;;;;3.10;2.90;;;12.90;52.80;;;;;;6214589;23;20143;-87
2021/05/28 05:05:32;;;;;;;4.43;4.10;;;12.80;53.60;;;;;;6214319;23;20428;-88
2021/05/28 05:07:57;;;;;;;2.90;2.70;;;12.90;54.10;;;;;;6215209;23;20142;-87
2021/05/28 05:10:23;;;;;;;4.10;3.60;;;13.00;52.90;;;;;;6215437;23;20404;-88
2021/05/28 05:12:48;;;;;;;3.47;3.20;;;13.40;51.90;;;;;;6215097;23;20597;-87
2021/05/28 05:15:15;;;;;;;3.77;3.47;;;13.80;50.60;;;;;;6215137;23;20158;-87
2021/05/28 05:17:41;;;;;;;3.90;3.60;;;14.00;50.20;;;;;;6214866;23;20162;-87
2021/05/28 05:20:08;;;;;;;3.40;3.10;;;14.30;49.50;;;;;;6214726;23;20429;-87
2021/05/28 05:22:35;;;;;;;4.70;3.03;;;14.60;49.30;;;;;;6215825;23;20143;-88
2021/05/28 05:25:00;;;;;;;3.27;2.97;;;14.80;47.00;;;;;;6216716;23;20431;-87
2021/05/28 05:27:26;;;;;;;3.53;3.27;;;15.50;45.70;;;;;;6214496;23;20377;-87
2021/05/28 05:29:52;;;;;;;3.33;3.03;;;16.00;44.00;;;;;;6214495;23;20229;-87
2021/05/28 05:32:17;;;;;;;3.20;3.00;;;16.20;43.00;;;;;;6216454;23;20174;-88
2021/05/28 05:34:43;;;;;;;3.10;2.90;;;16.60;41.60;;;;;;6214728;23;20146;-87
2021/05/28 05:37:09;;;;;;;3.33;3.03;;;17.10;40.40;;;;;;6214752;23;20217;-86
2021/05/28 05:39:35;;;;;;;3.70;3.03;;;17.70;39.50;;;;;;6214359;23;20856;-87
2021/05/28 05:42:01;;;;;;;3.53;3.23;;;18.50;38.20;;;;;;6214514;23;20186;-87
2021/05/28 05:44:28;;;;;;;4.07;3.07;;;19.00;36.60;;;;;;6214907;23;20571;-87
2021/05/28 05:46:53;;;;;;;4.30;4.00;;;19.40;34.20;;;;;;6213939;23;20433;-87
2021/05/28 05:49:19;;;;;;;4.40;4.10;;;19.60;34.10;;;;;;6214353;23;20451;-87
2021/05/28 05:51:45;;;;;;;4.10;3.80;;;19.90;32.70;;;;;;6214301;23;20549;-86
2021/05/28 05:54:11;;;;;;;3.70;3.40;;;20.10;32.20;;;;;;6214438;23;20154;-86
2021/05/28 05:56:37;;;;;;;2.93;2.73;;;19.90;32.00;;;;;;6214240;23;20181;-85
2021/05/28 05:59:03;;;;;;;3.40;3.10;;;20.20;32.50;;;;;;6214081;23;20609;-85
2021/05/28 06:01:29;;;;;;;5.33;3.50;;;20.30;32.10;;;;;;6214678;23;20437;-86
2021/05/28 06:03:54;;;;;;;5.87;3.33;;;20.40;31.50;;;;;;6214293;23;20926;-85
2021/05/28 06:06:20;;;;;;;4.17;2.93;;;20.50;32.30;;;;;;6214464;23;20173;-86
2021/05/28 06:08:46;;;;;;;4.60;4.20;;;20.70;31.80;;;;;;6214127;23;20146;-86
2021/05/28 06:11:12;;;;;;;3.30;3.10;;;21.00;30.60;;;;;;6214736;23;20674;-86
2021/05/28 06:13:37;;;;;;;3.77;3.50;;;20.70;30.70;;;;;;6214401;23;20230;-87
2021/05/28 06:16:03;;;;;;;4.33;4.03;;;21.20;31.20;;;;;;6214547;23;20459;-87
2021/05/28 06:18:29;;;;;;;3.90;3.60;;;20.70;30.50;;;;;;6215960;23;20161;-89
2021/05/28 06:20:56;;;;;;;4.20;3.70;;;20.80;30.20;;;;;;6217387;23;20388;-89
2021/05/28 06:23:29;;;;;;;4.43;4.13;;;20.90;30.50;;;;;;6215821;23;20352;-90
2021/05/28 06:25:56;;;;;;;4.30;3.67;;;20.90;30.10;;;;;;6215488;23;20406;-87
2021/05/28 06:28:22;;;;;;;4.30;4.00;;;20.90;30.90;;;;;;6215386;23;20696;-87
2021/05/28 06:30:47;;;;;;;5.67;3.83;;;20.90;30.60;;;;;;6215433;23;20352;-88
2021/05/28 06:33:14;;;;;;;4.10;3.80;;;20.80;31.00;;;;;;6214919;23;20161;-87
2021/05/28 06:35:41;;;;;;;3.37;3.10;;;21.30;30.90;;;;;;6215804;23;20150;-88
2021/05/28 06:38:10;;;;;;;3.93;3.63;;;21.90;30.00;;;;;;6214971;23;20389;-88
2021/05/28 06:40:37;;;;;;;4.10;3.70;;;22.60;28.90;;;;;;6214022;23;20407;-89
2021/05/28 06:43:15;;;;;;;4.50;2.77;;;23.20;28.20;;;;;;6215962;23;20356;-87
2021/05/28 06:45:41;;;;;;;4.60;4.20;;;24.00;27.10;;;;;;6219583;23;20656;-89
2021/05/28 06:48:10;;;;;;;3.87;3.57;;;24.60;24.70;;;;;;6216593;23;20742;-87
2021/05/28 06:50:40;;;;;;;4.97;4.60;;;24.80;24.60;;;;;;6193652;23;20152;-88
2021/05/28 06:53:06;;;;;;;4.70;4.17;;;24.90;24.20;;;;;;6192275;23;20391;-88
2021/05/28 06:55:32;;;;;;;3.40;3.10;;;25.00;24.40;;;;;;6189887;23;20395;-87
2021/05/28 06:57:58;;;;;;;3.40;3.10;;;25.20;24.50;;;;;;6189867;23;20718;-86
2021/05/28 07:00:25;;;;;;;2.70;2.50;;;25.70;24.20;;;;;;6216608;23;20208;-89
2021/05/28 07:02:53;;;;;;;5.20;4.80;;;26.20;23.40;;;;;;6191830;23;20413;-90
2021/05/28 07:05:19;;;;;;;3.50;3.20;;;26.40;22.00;;;;;;6190486;23;20409;-87
2021/05/28 07:07:45;;;;;;;3.13;2.93;;;26.50;22.80;;;;;;6189386;23;20395;-87
2021/05/28 07:10:12;;;;;;;4.27;3.60;;;26.90;22.50;;;;;;6216020;23;20205;-87
2021/05/28 07:12:37;;;;;;;3.20;2.63;;;27.20;21.40;;;;;;6190390;23;20154;-90
2021/05/28 07:15:11;;;;;;;4.30;3.70;;;27.60;21.40;;;;;;6216998;23;20373;-89
2021/05/28 07:17:37;;;;;;;2.90;2.70;;;28.00;20.70;;;;;;6189445;23;20148;-88
2021/05/28 07:20:05;;;;;;;3.63;3.23;;;28.30;20.40;;;;;;6189456;23;20494;-86
2021/05/28 07:22:31;;;;;;;3.10;2.90;;;28.40;19.80;;;;;;6189797;23;20224;-86
2021/05/28 07:24:57;;;;;;;4.10;3.80;;;28.50;20.10;;;;;;6215717;23;20362;-87
2021/05/28 07:27:23;;;;;;;3.72;3.42;;;28.40;19.90;;;;;;6214806;23;20750;-87
2021/05/28 07:29:49;;;;;;;4.17;3.77;;;28.30;19.90;;;;;;6216537;23;20131;-88
2021/05/28 07:32:15;;;;;;;4.60;3.80;;;28.00;19.70;;;;;;6191399;23;20154;-89
2021/05/28 07:34:41;;;;;;;3.60;3.30;;;27.60;20.10;;;;;;6188428;23;20156;-83
2021/05/28 07:37:06;;;;;;;4.03;3.73;;;27.20;21.00;;;;;;6187257;23;20213;-84
2021/05/28 07:39:33;;;;;;;3.63;3.33;;;26.90;21.40;;;;;;6187934;23;20235;-84
2021/05/28 07:42:00;;;;;;;5.60;5.07;;;26.30;22.30;;;;;;6190976;23;20187;-90
2021/05/28 07:44:26;;;;;;;5.80;5.10;;;25.60;23.10;;;;;;6189459;23;20374;-88
2021/05/28 07:46:56;;;;;;;4.23;3.93;;;25.20;23.50;;;;;;6171192;23;20484;-88
2021/05/28 07:49:22;;;;;;;4.47;4.17;;;25.00;24.70;;;;;;6160321;23;20378;-87
2021/05/28 07:52:09;;;;;;;4.53;4.23;;;24.80;24.90;;;;;;6160641;23;20405;-88
2021/05/28 07:54:36;;;;;;;4.10;3.80;;;24.70;25.30;;;;;;6136764;23;20171;-87
2021/05/28 07:57:06;;;;;;;5.43;4.93;;;24.60;25.00;;;;;;6162178;23;20398;-88
2021/05/28 07:59:32;;;;;;;4.23;3.93;;;24.40;24.90;;;;;;6162316;23;20159;-89
2021/05/28 08:01:59;;;;;;;4.00;3.70;;;24.30;25.70;;;;;;6188894;23;20441;-88
2021/05/28 08:04:24;;;;;;;5.13;4.67;;;24.30;26.00;;;;;;6163025;23;20158;-89
2021/05/28 08:06:50;;;;;;;4.43;4.03;;;23.80;25.00;;;;;;6162129;23;20708;-89
2021/05/28 08:09:16;;;;;;;8.77;5.23;;;23.30;26.40;;;;;;6186652;23;20162;-90
2021/05/28 08:11:42;;;;;;;4.10;3.80;;;23.10;26.50;;;;;;6161034;23;20158;-89
2021/05/28 08:14:09;;;;;;;5.03;4.53;;;22.80;26.90;;;;;;6162967;23;20158;-89
2021/05/28 08:16:35;;;;;;;7.37;5.70;;;22.50;27.50;;;;;;6163638;23;20364;-90
2021/05/28 08:19:01;;;;;;;4.60;4.27;;;22.40;28.10;;;;;;6162381;23;20357;-90
2021/05/28 08:21:53;;;;;;;4.60;4.20;;;22.00;28.70;;;;;;6166140;23;20411;-92
2021/05/28 08:24:18;;;;;;;5.00;4.50;;;21.50;29.60;;;;;;6167085;23;20352;-91
2021/05/28 08:27:06;;;;;;;5.17;4.77;;;21.20;29.70;;;;;;6166899;23;20781;-89
2021/05/28 08:29:32;;;;;;;5.07;4.53;;;21.00;30.20;;;;;;6164770;23;20237;-87
2021/05/28 08:32:04;;;;;;;5.60;4.53;;;20.90;30.00;;;;;;6163061;23;20378;-87
2021/05/28 08:34:30;;;;;;;3.90;3.67;;;20.80;30.10;;;;;;6162628;23;20155;-87
2021/05/28 08:37:02;;;;;;;3.40;3.20;;;20.90;30.70;;;;;;6162677;23;20407;-88
2021/05/28 08:39:28;;;;;;;4.50;3.83;;;21.10;31.20;;;;;;6163264;23;20182;-88
2021/05/28 08:42:01;;;;;;;4.70;3.73;;;21.10;30.90;;;;;;6163403;23;20401;-88
2021/05/28 08:44:27;;;;;;;5.27;3.90;;;21.20;30.60;;;;;;6163572;23;20151;-88
2021/05/28 08:46:54;;;;;;;4.80;4.40;;;21.30;30.50;;;;;;6188946;23;20956;-91
2021/05/28 08:50:06;;;;;;;4.40;4.00;;;21.10;31.20;;;;;;6222624;23;20412;-91
2021/05/28 08:52:32;;;;;;;4.77;3.73;;;20.90;31.10;;;;;;6215684;23;20617;-88
2021/05/28 08:54:57;;;;;;;4.00;3.37;;;20.90;31.10;;;;;;6216412;23;20441;-88
2021/05/28 08:57:24;;;;;;;3.20;3.00;;;21.10;31.10;;;;;;6217490;23;20151;-87
2021/05/28 09:00:04;;;;;;;3.33;3.03;;;21.20;29.70;;;;;;6216322;23;20142;-88
2021/05/28 09:02:31;;;;;;;5.00;3.57;;;21.40;29.80;;;;;;6217027;23;20844;-88
2021/05/28 09:05:21;;;;;;;3.37;3.07;;;21.50;29.50;;;;;;6216885;23;20348;-87
2021/05/28 09:07:58;;;;;;;4.10;3.20;;;21.70;29.20;;;;;;6216927;23;20371;-88
2021/05/28 09:10:42;;;;;;;3.90;3.50;;;21.80;29.30;;;;;;6216596;23;20348;-86
2021/05/28 09:13:24;;;;;;;3.03;2.73;;;22.00;28.60;;;;;;6216506;23;20348;-88
2021/05/28 09:16:20;;;;;;;5.30;2.50;;;22.10;29.00;;;;;;6216789;23;20439;-87
2021/05/28 09:18:49;;;;;;;3.57;2.80;;;22.30;28.00;;;;;;6215027;23;20381;-87
2021/05/28 09:21:24;;;;;;;3.93;2.50;;;22.40;27.70;;;;;;6216709;23;20399;-91
2021/05/28 09:23:53;;;;;;;3.20;3.00;;;22.30;27.40;;;;;;6216137;23;20373;-89
2021/05/28 09:26:23;;;;;;;3.50;3.00;;;22.30;27.90;;;;;;6217192;23;20654;-88
2021/05/28 09:28:50;;;;;;;3.53;3.20;;;22.40;28.00;;;;;;6215866;23;20402;-88
2021/05/28 09:31:24;;;;;;;4.23;3.83;;;22.40;27.90;;;;;;6215527;23;20362;-89
2021/05/28 09:33:51;;;;;;;4.37;3.97;;;22.40;28.10;;;;;;6215665;23;20371;-88
2021/05/28 09:36:55;;;;;;;3.50;3.20;;;22.10;26.20;;;;;;6214414;23;20425;-87
2021/05/28 09:39:21;;;;;;;8.50;4.38;;;21.90;27.70;;;;;;6216390;23;20382;-88
2021/05/28 09:42:01;;;;;;;9.80;4.77;;;21.70;29.00;;;;;;6218578;23;20162;-89
2021/05/28 09:44:29;;;;;;;5.13;3.90;;;21.40;29.20;;;;;;6217192;23;20142;-89
2021/05/28 09:47:18;;;;;;;7.47;4.07;;;21.00;29.90;;;;;;6216067;23;20399;-89
2021/05/28 09:49:51;;;;;;;4.75;4.25;;;20.70;30.10;;;;;;6214130;23;20387;-88
2021/05/28 09:52:24;;;;;;;5.60;4.40;;;20.60;30.50;;;;;;6216677;23;20437;-89
2021/05/28 09:55:07;;;;;;;4.57;4.23;;;20.20;31.00;;;;;;6217553;23;20388;-89
2021/05/28 09:57:34;;;;;;;4.20;3.80;;;20.20;30.90;;;;;;6218284;23;20359;-89
2021/05/28 10:00:25;;;;;;;4.47;4.07;;;20.00;31.20;;;;;;6215713;23;20384;-89
2021/05/28 10:03:12;;;;;;;5.10;4.20;;;19.90;31.10;;;;;;6213936;23;20382;-89
2021/05/28 10:05:39;;;;;;;4.50;4.00;;;19.90;31.10;;;;;;6216955;23;20126;-88
2021/05/28 10:08:14;;;;;;;4.63;3.70;;;19.80;31.00;;;;;;6217746;23;20386;-88
2021/05/28 10:10:41;;;;;;;3.40;3.10;;;20.30;31.40;;;;;;6217793;23;20389;-89
2021/05/28 10:13:11;;;;;;;4.63;3.20;;;20.00;30.90;;;;;;6216150;23;20392;-89
2021/05/28 10:15:43;;;;;;;4.67;3.90;;;20.30;31.10;;;;;;6218905;23;20332;-89
2021/05/28 10:18:12;;;;;;;4.83;4.43;;;20.50;30.90;;;;;;6217010;23;20390;-89
2021/05/28 10:20:40;;;;;;;4.97;4.57;;;20.20;31.30;;;;;;6215156;23;20482;-85
2021/05/28 10:23:07;;;;;;;4.67;4.27;;;20.00;31.80;;;;;;6217825;23;20358;-88
2021/05/28 10:25:34;;;;;;;5.13;4.40;;;20.10;32.30;;;;;;6217918;23;20388;-90
2021/05/28 10:28:07;;;;;;;4.30;3.87;;;20.50;31.70;;;;;;6191824;23;20386;-92
2021/05/28 10:30:42;;;;;;;4.30;3.90;;;20.20;31.40;;;;;;6217632;23;20471;-89
2021/05/28 10:33:42;;;;;;;4.37;3.57;;;20.20;31.40;;;;;;6217840;23;20477;-92
2021/05/28 10:36:09;;;;;;;4.23;3.80;;;20.60;31.10;;;;;;6220629;23;20714;-92
2021/05/28 10:38:46;;;;;;;3.40;3.20;;;20.40;29.60;;;;;;6217856;23;20477;-89
2021/05/28 10:41:12;;;;;;;3.83;3.53;;;20.40;30.00;;;;;;6218840;23;20435;-90
2021/05/28 10:43:51;;;;;;;3.83;3.50;;;20.30;30.10;;;;;;6218807;23;20382;-89
2021/05/28 10:46:26;;;;;;;4.40;4.00;;;20.10;29.50;;;;;;6217717;23;20196;-89
2021/05/28 10:48:58;;;;;;;3.40;3.10;;;20.40;30.20;;;;;;6216328;23;20453;-89
2021/05/28 10:51:37;;;;;;;6.60;3.50;;;20.20;30.20;;;;;;6215346;23;20844;-90
2021/05/28 10:54:02;;;;;;;4.47;4.10;;;20.60;29.70;;;;;;6217487;23;20420;-87
2021/05/28 10:56:46;;;;;;;5.27;3.70;;;20.90;29.50;;;;;;6216692;23;20700;-88
2021/05/28 10:59:16;;;;;;;4.47;4.10;;;21.00;28.60;;;;;;6216263;23;20154;-88
2021/05/28 11:01:56;;;;;;;4.77;3.73;;;21.00;28.30;;;;;;6216310;23;20789;-88
2021/05/28 11:04:56;;;;;;;4.77;3.50;;;20.70;28.70;;;;;;6216444;23;20841;-87
2021/05/28 11:07:21;;;;;;;4.05;3.60;;;20.90;28.20;;;;;;6215260;23;20389;-88
2021/05/28 11:09:50;;;;;;;5.47;3.97;;;20.90;28.50;;;;;;6216522;23;20486;-88
2021/05/28 11:12:48;;;;;;;4.37;4.00;;;20.90;28.80;;;;;;6217384;23;20147;-88
2021/05/28 11:15:20;;;;;;;3.77;3.47;;;21.00;28.60;;;;;;6216269;23;20356;-89
2021/05/28 11:18:09;;;;;;;5.00;3.80;;;21.00;28.60;;;;;;6219086;23;20865;-91
2021/05/28 11:20:42;;;;;;;3.80;3.50;;;20.70;28.90;;;;;;6220540;23;20421;-91
2021/05/28 11:23:47;;;;;;;4.43;3.30;;;21.60;28.00;;;;;;6225529;23;20352;-88
2021/05/28 11:26:15;;;;;;;3.80;3.50;;;21.40;28.20;;;;;;6219985;23;20493;-91
2021/05/28 11:28:53;;;;;;;4.50;3.17;;;21.40;28.70;;;;;;6222692;23;20559;-89
2021/05/28 11:31:24;;;;;;;4.30;3.87;;;21.70;28.60;;;;;;6224991;23;20431;-90
2021/05/28 11:37:50;;;;;;;5.20;4.27;;;21.80;27.80;;;;;;6219714;23;20345;-90
2021/05/28 11:40:54;;;;;;;4.83;4.43;;;21.40;27.70;;;;;;6217369;23;20438;-88
2021/05/28 11:43:20;;;;;;;5.40;4.53;;;21.10;28.10;;;;;;6218149;23;20460;-87
2021/05/28 11:46:11;;;;;;;5.63;4.13;;;20.60;28.30;;;;;;6218811;23;20448;-89
2021/05/28 11:48:36;;;;;;;4.90;3.43;;;20.50;29.40;;;;;;6219307;23;20254;-89
2021/05/28 11:51:04;;;;;;;4.93;4.43;;;20.30;29.30;;;;;;6219901;23;20373;-88
2021/05/28 11:53:31;;;;;;;3.73;3.00;;;20.90;29.00;;;;;;6219263;23;20246;-88
2021/05/28 11:55:58;;;;;;;5.13;4.30;;;21.00;29.00;;;;;;6221268;23;20366;-89
2021/05/28 11:58:31;;;;;;;3.47;3.20;;;21.10;27.40;;;;;;6219778;23;20819;-88
2021/05/28 12:01:10;;;;;;;3.70;3.30;;;20.90;26.60;;;;;;6219986;23;20512;-89
2021/05/28 12:03:36;;;;;;;4.23;3.90;;;21.40;27.40;;;;;;6218879;23;20351;-88
2021/05/28 12:06:15;;;;;;;4.50;4.10;;;21.70;27.20;;;;;;6219596;23;20382;-90
2021/05/28 12:08:41;;;;;;;4.60;4.13;;;21.90;26.80;;;;;;6219864;23;20142;-89
2021/05/28 12:11:27;;;;;;;4.87;3.83;;;21.60;27.20;;;;;;6221355;23;20386;-92
2021/05/28 12:13:53;;;;;;;4.13;3.63;;;21.60;27.80;;;;;;6216238;23;20396;-89
2021/05/28 12:16:39;;;;;;;4.80;3.67;;;21.70;27.10;;;;;;6220690;23;20459;-91
2021/05/28 12:19:05;;;;;;;4.10;3.67;;;21.50;27.60;;;;;;6220740;23;20150;-91
2021/05/28 12:22:08;;;;;;;6.37;4.43;;;21.60;27.30;;;;;;6223494;23;20462;-92
2021/05/28 12:25:06;;;;;;;3.75;3.17;;;21.10;27.50;;;;;;6222621;23;20738;-91
2021/05/28 12:27:32;;;;;;;3.43;3.13;;;21.70;27.40;;;;;;6227012;23;20161;-90
2021/05/28 12:33:25;;;;;;;4.37;2.90;;;21.80;26.70;;;;;;6229296;23;20337;-91
2021/05/28 12:36:44;;;;;;;3.87;3.47;;;21.60;26.70;;;;;;6234940;23;20382;-94
2021/05/28 12:39:15;;;;;;;3.23;2.90;;;21.50;26.20;;;;;;6223361;23;20401;-92
2021/05/28 12:41:50;;;;;;;3.00;2.63;;;21.60;26.00;;;;;;6220323;23;20479;-90
2021/05/28 12:44:21;;;;;;;8.20;2.43;;;21.50;26.10;;;;;;6218871;23;20828;-90
2021/05/28 12:47:00;;;;;;;4.37;2.60;;;21.50;26.10;;;;;;6219376;23;20363;-90
2021/05/28 12:49:30;;;;;;;4.03;2.70;;;21.20;26.30;;;;;;6164388;23;20378;-89
2021/05/28 12:51:56;;;;;;;4.43;2.77;;;21.10;26.60;;;;;;6166593;23;20345;-91
2021/05/28 12:54:36;;;;;;;6.07;2.23;;;21.00;26.20;;;;;;6171974;23;20377;-92
2021/05/28 12:57:04;;;;;;;6.40;3.07;;;20.90;26.40;;;;;;6168124;23;20238;-91
2021/05/28 13:07:06;;;;;;;3.60;2.20;;;21.20;24.80;;;;;;6194481;23;20337;-92
2021/05/28 13:09:33;;;;;;;2.30;2.10;;;21.00;24.60;;;;;;6169720;23;20381;-91
2021/05/28 13:12:40;;;;;;;2.73;2.53;;;21.70;25.40;;;;;;6165484;23;20371;-91
2021/05/28 13:15:06;;;;;;;3.53;2.10;;;22.10;24.50;;;;;;6164828;23;20367;-91
2021/05/28 13:18:20;;;;;;;4.40;2.30;;;22.00;24.30;;;;;;6164436;23;20374;-90